sensor_id;sensor_type;location;lat;lon;timestamp;temperature;humidity
20862;DHT22;10591;52.532;13.348;2022-08-30T00:02:33;16.51;85.88
20862;DHT22;10591;52.532;13.348;2022-08-30T00:05:04;16.48;85.94
20862;DHT22;10591;52.532;13.348;2022-08-30T00:07:35;16.48;85.96
20862;DHT22;10591;52.532;13.348;2022-08-30T00:10:06;16.47;85.96
20862;DHT22;10591;52.532;13.348;2022-08-30T00:12:37;16.54;85.83
20862;DHT22;10591;52.532;13.348;2022-08-30T00:15:08;16.53;85.86
20862;DHT22;10591;52.532;13.348;2022-08-30T00:17:41;16.58;85.75
20862;DHT22;10591;52.532;13.348;2022-08-30T00:20:15;16.58;85.75
20862;DHT22;10591;52.532;13.348;2022-08-30T00:22:47;16.58;85.65
20862;DHT22;10591;52.532;13.348;2022-08-30T00:25:18;16.58;85.68
20862;DHT22;10591;52.532;13.348;2022-08-30T00:27:49;16.62;85.56
20862;DHT22;10591;52.532;13.348;2022-08-30T00:30:20;16.65;85.50
20862;DHT22;10591;52.532;13.348;2022-08-30T00:32:50;16.60;85.46
20862;DHT22;10591;52.532;13.348;2022-08-30T00:35:22;16.58;85.58
20862;DHT22;10591;52.532;13.348;2022-08-30T00:37:53;16.57;85.68
20862;DHT22;10591;52.532;13.348;2022-08-30T00:40:26;16.52;85.78
20862;DHT22;10591;52.532;13.348;2022-08-30T00:42:58;16.52;85.93
20862;DHT22;10591;52.532;13.348;2022-08-30T00:45:34;16.48;86.06
20862;DHT22;10591;52.532;13.348;2022-08-30T00:48:05;16.44;86.10
20862;DHT22;10591;52.532;13.348;2022-08-30T00:50:39;16.50;85.99
20862;DHT22;10591;52.532;13.348;2022-08-30T00:53:12;16.40;86.33
20862;DHT22;10591;52.532;13.348;2022-08-30T00:55:43;16.40;86.38
20862;DHT22;10591;52.532;13.348;2022-08-30T00:58:17;16.40;86.31
20862;DHT22;10591;52.532;13.348;2022-08-30T01:00:51;16.39;86.28
20862;DHT22;10591;52.532;13.348;2022-08-30T01:03:23;16.38;86.37
20862;DHT22;10591;52.532;13.348;2022-08-30T01:05:53;16.42;86.22
20862;DHT22;10591;52.532;13.348;2022-08-30T01:08:26;16.40;86.45
20862;DHT22;10591;52.532;13.348;2022-08-30T01:10:57;16.34;86.41
20862;DHT22;10591;52.532;13.348;2022-08-30T01:13:29;16.33;86.37
20862;DHT22;10591;52.532;13.348;2022-08-30T01:16:01;16.31;86.40
20862;DHT22;10591;52.532;13.348;2022-08-30T01:18:31;16.27;86.47
20862;DHT22;10591;52.532;13.348;2022-08-30T01:23:54;16.20;86.57
20862;DHT22;10591;52.532;13.348;2022-08-30T01:26:28;16.19;86.54
20862;DHT22;10591;52.532;13.348;2022-08-30T01:29:05;16.15;86.70
20862;DHT22;10591;52.532;13.348;2022-08-30T01:31:36;16.15;86.70
20862;DHT22;10591;52.532;13.348;2022-08-30T01:34:06;16.16;86.65
20862;DHT22;10591;52.532;13.348;2022-08-30T01:36:38;16.17;86.64
20862;DHT22;10591;52.532;13.348;2022-08-30T01:39:14;16.16;86.58
20862;DHT22;10591;52.532;13.348;2022-08-30T01:41:45;16.15;86.65
20862;DHT22;10591;52.532;13.348;2022-08-30T01:44:16;16.15;86.63
20862;DHT22;10591;52.532;13.348;2022-08-30T01:46:47;16.16;86.65
20862;DHT22;10591;52.532;13.348;2022-08-30T01:49:18;16.13;86.74
20862;DHT22;10591;52.532;13.348;2022-08-30T01:51:50;16.21;86.62
20862;DHT22;10591;52.532;13.348;2022-08-30T01:54:22;16.18;86.54
20862;DHT22;10591;52.532;13.348;2022-08-30T01:56:54;16.21;86.59
20862;DHT22;10591;52.532;13.348;2022-08-30T01:59:25;16.17;86.52
20862;DHT22;10591;52.532;13.348;2022-08-30T02:01:56;16.16;86.49
20862;DHT22;10591;52.532;13.348;2022-08-30T02:04:26;16.05;86.67
20862;DHT22;10591;52.532;13.348;2022-08-30T02:06:56;15.99;86.83
20862;DHT22;10591;52.532;13.348;2022-08-30T02:09:27;15.94;86.93
20862;DHT22;10591;52.532;13.348;2022-08-30T02:11:57;15.95;86.89
20862;DHT22;10591;52.532;13.348;2022-08-30T02:14:28;15.94;86.89
20862;DHT22;10591;52.532;13.348;2022-08-30T02:16:58;15.90;86.97
20862;DHT22;10591;52.532;13.348;2022-08-30T02:19:30;15.85;87.01
20862;DHT22;10591;52.532;13.348;2022-08-30T02:22:00;15.87;87.06
20862;DHT22;10591;52.532;13.348;2022-08-30T02:24:31;15.84;87.10
20862;DHT22;10591;52.532;13.348;2022-08-30T02:27:02;15.80;87.14
20862;DHT22;10591;52.532;13.348;2022-08-30T02:29:33;15.74;87.22
20862;DHT22;10591;52.532;13.348;2022-08-30T02:32:05;15.77;87.15
20862;DHT22;10591;52.532;13.348;2022-08-30T02:34:35;15.71;87.26
20862;DHT22;10591;52.532;13.348;2022-08-30T02:37:05;15.71;87.26
20862;DHT22;10591;52.532;13.348;2022-08-30T02:39:37;15.72;87.26
20862;DHT22;10591;52.532;13.348;2022-08-30T02:42:07;15.63;87.33
20862;DHT22;10591;52.532;13.348;2022-08-30T02:44:38;15.62;87.47
20862;DHT22;10591;52.532;13.348;2022-08-30T02:47:08;15.60;87.47
20862;DHT22;10591;52.532;13.348;2022-08-30T02:49:39;15.64;87.43
20862;DHT22;10591;52.532;13.348;2022-08-30T02:52:09;15.66;87.32
20862;DHT22;10591;52.532;13.348;2022-08-30T02:54:39;15.59;87.39
20862;DHT22;10591;52.532;13.348;2022-08-30T02:57:10;15.62;87.38
20862;DHT22;10591;52.532;13.348;2022-08-30T02:59:43;15.66;87.29
20862;DHT22;10591;52.532;13.348;2022-08-30T03:02:15;15.56;87.37
20862;DHT22;10591;52.532;13.348;2022-08-30T03:04:46;15.54;87.41
20862;DHT22;10591;52.532;13.348;2022-08-30T03:07:17;15.50;87.47
20862;DHT22;10591;52.532;13.348;2022-08-30T03:09:47;15.46;87.53
20862;DHT22;10591;52.532;13.348;2022-08-30T03:12:18;15.44;87.66
20862;DHT22;10591;52.532;13.348;2022-08-30T03:14:48;15.42;87.80
20862;DHT22;10591;52.532;13.348;2022-08-30T03:17:19;15.45;87.85
20862;DHT22;10591;52.532;13.348;2022-08-30T03:19:49;15.39;87.74
20862;DHT22;10591;52.532;13.348;2022-08-30T03:22:20;15.41;87.64
20862;DHT22;10591;52.532;13.348;2022-08-30T03:24:51;15.39;87.61
20862;DHT22;10591;52.532;13.348;2022-08-30T03:27:21;15.42;87.56
20862;DHT22;10591;52.532;13.348;2022-08-30T03:29:51;15.38;87.58
20862;DHT22;10591;52.532;13.348;2022-08-30T03:32:23;15.38;87.69
20862;DHT22;10591;52.532;13.348;2022-08-30T03:34:53;15.40;87.61
20862;DHT22;10591;52.532;13.348;2022-08-30T03:37:24;15.42;87.71
20862;DHT22;10591;52.532;13.348;2022-08-30T03:39:56;15.42;87.78
20862;DHT22;10591;52.532;13.348;2022-08-30T03:42:27;15.47;87.63
20862;DHT22;10591;52.532;13.348;2022-08-30T03:44:57;15.53;87.50
20862;DHT22;10591;52.532;13.348;2022-08-30T03:47:29;15.58;87.39
20862;DHT22;10591;52.532;13.348;2022-08-30T03:50:00;15.58;87.32
20862;DHT22;10591;52.532;13.348;2022-08-30T03:52:31;15.54;87.27
20862;DHT22;10591;52.532;13.348;2022-08-30T03:55:01;15.54;87.34
20862;DHT22;10591;52.532;13.348;2022-08-30T03:57:32;15.57;87.34
20862;DHT22;10591;52.532;13.348;2022-08-30T04:00:05;15.50;87.40
20862;DHT22;10591;52.532;13.348;2022-08-30T04:02:36;15.52;87.50
20862;DHT22;10591;52.532;13.348;2022-08-30T04:05:08;15.54;87.43
20862;DHT22;10591;52.532;13.348;2022-08-30T04:07:38;15.53;87.35
20862;DHT22;10591;52.532;13.348;2022-08-30T04:10:10;15.46;87.39
20862;DHT22;10591;52.532;13.348;2022-08-30T04:12:40;15.45;87.48
20862;DHT22;10591;52.532;13.348;2022-08-30T04:15:14;15.45;87.41
20862;DHT22;10591;52.532;13.348;2022-08-30T04:17:45;15.42;87.35
20862;DHT22;10591;52.532;13.348;2022-08-30T04:20:16;15.41;87.37
20862;DHT22;10591;52.532;13.348;2022-08-30T04:22:46;15.36;87.46
20862;DHT22;10591;52.532;13.348;2022-08-30T04:25:17;15.32;87.52
20862;DHT22;10591;52.532;13.348;2022-08-30T04:27:48;15.31;87.52
20862;DHT22;10591;52.532;13.348;2022-08-30T04:30:19;15.33;87.64
20862;DHT22;10591;52.532;13.348;2022-08-30T04:32:49;15.29;87.63
20862;DHT22;10591;52.532;13.348;2022-08-30T04:35:21;15.26;87.57
20862;DHT22;10591;52.532;13.348;2022-08-30T04:37:52;15.26;87.57
20862;DHT22;10591;52.532;13.348;2022-08-30T04:40:22;15.30;87.63
20862;DHT22;10591;52.532;13.348;2022-08-30T04:42:53;15.33;87.60
20862;DHT22;10591;52.532;13.348;2022-08-30T04:45:26;15.38;87.60
20862;DHT22;10591;52.532;13.348;2022-08-30T04:47:56;15.34;87.55
20862;DHT22;10591;52.532;13.348;2022-08-30T04:50:27;15.32;87.59
20862;DHT22;10591;52.532;13.348;2022-08-30T04:52:57;15.33;87.68
20862;DHT22;10591;52.532;13.348;2022-08-30T04:55:28;15.38;87.65
20862;DHT22;10591;52.532;13.348;2022-08-30T04:57:58;15.48;87.58
20862;DHT22;10591;52.532;13.348;2022-08-30T05:00:29;15.43;87.64
20862;DHT22;10591;52.532;13.348;2022-08-30T05:03:00;15.50;87.47
20862;DHT22;10591;52.532;13.348;2022-08-30T05:05:30;15.49;87.42
20862;DHT22;10591;52.532;13.348;2022-08-30T05:08:13;15.51;87.30
20862;DHT22;10591;52.532;13.348;2022-08-30T05:10:46;15.46;87.37
20862;DHT22;10591;52.532;13.348;2022-08-30T05:13:18;15.44;87.44
20862;DHT22;10591;52.532;13.348;2022-08-30T05:15:51;15.51;87.49
20862;DHT22;10591;52.532;13.348;2022-08-30T05:18:22;15.50;87.56
20862;DHT22;10591;52.532;13.348;2022-08-30T05:23:37;15.64;87.48
20862;DHT22;10591;52.532;13.348;2022-08-30T05:26:12;15.70;87.37
20862;DHT22;10591;52.532;13.348;2022-08-30T05:28:44;15.80;87.16
20862;DHT22;10591;52.532;13.348;2022-08-30T05:31:17;15.87;86.90
20862;DHT22;10591;52.532;13.348;2022-08-30T05:33:49;15.91;86.72
20862;DHT22;10591;52.532;13.348;2022-08-30T05:36:22;16.00;86.55
20862;DHT22;10591;52.532;13.348;2022-08-30T05:38:53;16.09;86.38
20862;DHT22;10591;52.532;13.348;2022-08-30T05:41:24;16.19;86.33
20862;DHT22;10591;52.532;13.348;2022-08-30T05:43:57;16.31;86.16
20862;DHT22;10591;52.532;13.348;2022-08-30T05:46:30;16.35;86.12
20862;DHT22;10591;52.532;13.348;2022-08-30T05:49:05;16.35;85.97
20862;DHT22;10591;52.532;13.348;2022-08-30T05:51:37;16.43;85.85
20862;DHT22;10591;52.532;13.348;2022-08-30T05:54:11;16.50;85.40
20862;DHT22;10591;52.532;13.348;2022-08-30T05:56:44;16.56;85.60
20862;DHT22;10591;52.532;13.348;2022-08-30T05:59:15;16.62;85.43
20862;DHT22;10591;52.532;13.348;2022-08-30T06:01:46;16.65;85.33
20862;DHT22;10591;52.532;13.348;2022-08-30T06:04:16;16.66;85.34
20862;DHT22;10591;52.532;13.348;2022-08-30T06:06:47;16.76;85.16
20862;DHT22;10591;52.532;13.348;2022-08-30T06:09:18;16.80;85.08
20862;DHT22;10591;52.532;13.348;2022-08-30T06:11:48;16.84;84.99
20862;DHT22;10591;52.532;13.348;2022-08-30T06:14:19;16.94;84.97
20862;DHT22;10591;52.532;13.348;2022-08-30T06:16:49;16.95;84.73
20862;DHT22;10591;52.532;13.348;2022-08-30T06:19:20;17.08;84.65
20862;DHT22;10591;52.532;13.348;2022-08-30T06:21:51;17.15;84.28
20862;DHT22;10591;52.532;13.348;2022-08-30T06:24:22;17.15;84.26
20862;DHT22;10591;52.532;13.348;2022-08-30T06:26:54;17.20;84.25
20862;DHT22;10591;52.532;13.348;2022-08-30T06:29:24;17.22;83.81
20862;DHT22;10591;52.532;13.348;2022-08-30T06:31:56;17.29;83.72
20862;DHT22;10591;52.532;13.348;2022-08-30T06:34:27;17.33;83.57
20862;DHT22;10591;52.532;13.348;2022-08-30T06:36:58;17.38;83.45
20862;DHT22;10591;52.532;13.348;2022-08-30T06:39:29;17.43;83.26
20862;DHT22;10591;52.532;13.348;2022-08-30T06:41:59;17.43;83.27
20862;DHT22;10591;52.532;13.348;2022-08-30T06:44:29;17.52;83.13
20862;DHT22;10591;52.532;13.348;2022-08-30T06:47:00;17.63;82.86
20862;DHT22;10591;52.532;13.348;2022-08-30T06:49:30;17.63;82.79
20862;DHT22;10591;52.532;13.348;2022-08-30T06:52:02;17.74;82.89
20862;DHT22;10591;52.532;13.348;2022-08-30T06:54:33;17.73;82.54
20862;DHT22;10591;52.532;13.348;2022-08-30T06:57:04;17.79;82.46
20862;DHT22;10591;52.532;13.348;2022-08-30T06:59:34;17.84;82.20
20862;DHT22;10591;52.532;13.348;2022-08-30T07:02:06;17.77;82.62
20862;DHT22;10591;52.532;13.348;2022-08-30T07:04:36;17.76;82.61
20862;DHT22;10591;52.532;13.348;2022-08-30T07:07:09;17.77;82.64
20862;DHT22;10591;52.532;13.348;2022-08-30T07:09:39;17.80;82.60
20862;DHT22;10591;52.532;13.348;2022-08-30T07:12:13;17.89;82.52
20862;DHT22;10591;52.532;13.348;2022-08-30T07:14:44;18.01;82.21
20862;DHT22;10591;52.532;13.348;2022-08-30T07:17:14;18.06;81.70
20862;DHT22;10591;52.532;13.348;2022-08-30T07:20:05;18.22;81.58
20862;DHT22;10591;52.532;13.348;2022-08-30T07:22:35;18.32;80.90
20862;DHT22;10591;52.532;13.348;2022-08-30T07:25:06;18.44;80.77
20862;DHT22;10591;52.532;13.348;2022-08-30T07:27:36;18.55;80.57
20862;DHT22;10591;52.532;13.348;2022-08-30T07:30:08;18.67;80.46
20862;DHT22;10591;52.532;13.348;2022-08-30T07:32:38;18.70;79.91
20862;DHT22;10591;52.532;13.348;2022-08-30T07:35:09;18.78;79.84
20862;DHT22;10591;52.532;13.348;2022-08-30T07:37:39;18.72;79.71
20862;DHT22;10591;52.532;13.348;2022-08-30T07:40:12;18.75;79.79
20862;DHT22;10591;52.532;13.348;2022-08-30T07:42:42;18.75;79.94
20862;DHT22;10591;52.532;13.348;2022-08-30T07:45:13;18.68;80.16
20862;DHT22;10591;52.532;13.348;2022-08-30T07:47:44;18.63;80.35
20862;DHT22;10591;52.532;13.348;2022-08-30T07:50:14;18.64;80.35
20862;DHT22;10591;52.532;13.348;2022-08-30T07:52:45;18.53;80.18
20862;DHT22;10591;52.532;13.348;2022-08-30T07:55:15;18.49;80.55
20862;DHT22;10591;52.532;13.348;2022-08-30T07:57:45;18.39;80.78
20862;DHT22;10591;52.532;13.348;2022-08-30T08:00:16;18.37;80.93
20862;DHT22;10591;52.532;13.348;2022-08-30T08:02:47;18.54;80.59
20862;DHT22;10591;52.532;13.348;2022-08-30T08:05:17;18.75;79.97
20862;DHT22;10591;52.532;13.348;2022-08-30T08:07:49;18.86;78.62
20862;DHT22;10591;52.532;13.348;2022-08-30T08:10:20;18.99;78.42
20862;DHT22;10591;52.532;13.348;2022-08-30T08:12:50;19.16;77.30
20862;DHT22;10591;52.532;13.348;2022-08-30T08:15:22;19.22;77.47
20862;DHT22;10591;52.532;13.348;2022-08-30T08:17:54;19.25;77.69
20862;DHT22;10591;52.532;13.348;2022-08-30T08:20:25;19.37;77.42
20862;DHT22;10591;52.532;13.348;2022-08-30T08:22:55;19.70;76.86
20862;DHT22;10591;52.532;13.348;2022-08-30T08:25:27;19.99;75.61
20862;DHT22;10591;52.532;13.348;2022-08-30T08:27:58;20.32;75.04
20862;DHT22;10591;52.532;13.348;2022-08-30T08:30:32;20.66;73.64
20862;DHT22;10591;52.532;13.348;2022-08-30T08:33:03;20.90;72.34
20862;DHT22;10591;52.532;13.348;2022-08-30T08:35:34;20.85;72.33
20862;DHT22;10591;52.532;13.348;2022-08-30T08:38:04;20.86;72.62
20862;DHT22;10591;52.532;13.348;2022-08-30T08:40:43;20.71;72.14
20862;DHT22;10591;52.532;13.348;2022-08-30T08:43:14;20.53;72.44
20862;DHT22;10591;52.532;13.348;2022-08-30T08:46:00;20.54;72.28
20862;DHT22;10591;52.532;13.348;2022-08-30T08:48:51;20.59;72.39
20862;DHT22;10591;52.532;13.348;2022-08-30T08:51:23;20.56;72.36
20862;DHT22;10591;52.532;13.348;2022-08-30T08:54:20;20.50;72.64
20862;DHT22;10591;52.532;13.348;2022-08-30T08:56:51;20.42;73.32
20862;DHT22;10591;52.532;13.348;2022-08-30T08:59:22;20.27;73.37
20862;DHT22;10591;52.532;13.348;2022-08-30T09:01:58;20.16;73.43
20862;DHT22;10591;52.532;13.348;2022-08-30T09:04:33;20.06;74.06
20862;DHT22;10591;52.532;13.348;2022-08-30T09:07:13;19.88;74.38
20862;DHT22;10591;52.532;13.348;2022-08-30T09:09:41;19.76;74.68
20862;DHT22;10591;52.532;13.348;2022-08-30T09:12:12;19.62;74.63
20862;DHT22;10591;52.532;13.348;2022-08-30T09:14:50;19.59;75.02
20862;DHT22;10591;52.532;13.348;2022-08-30T09:17:22;19.60;74.09
20862;DHT22;10591;52.532;13.348;2022-08-30T09:22:35;20.08;73.28
20862;DHT22;10591;52.532;13.348;2022-08-30T09:27:45;20.32;71.63
20862;DHT22;10591;52.532;13.348;2022-08-30T09:30:29;20.34;71.88
20862;DHT22;10591;52.532;13.348;2022-08-30T09:33:03;20.40;71.39
20862;DHT22;10591;52.532;13.348;2022-08-30T09:35:40;20.44;71.62
20862;DHT22;10591;52.532;13.348;2022-08-30T09:38:15;20.47;70.60
20862;DHT22;10591;52.532;13.348;2022-08-30T09:40:55;20.54;70.29
20862;DHT22;10591;52.532;13.348;2022-08-30T09:43:31;20.73;69.98
20862;DHT22;10591;52.532;13.348;2022-08-30T09:46:05;20.92;68.92
20862;DHT22;10591;52.532;13.348;2022-08-30T09:48:40;21.26;68.01
20862;DHT22;10591;52.532;13.348;2022-08-30T09:51:32;21.63;66.82
20862;DHT22;10591;52.532;13.348;2022-08-30T09:56:54;22.20;63.87
20862;DHT22;10591;52.532;13.348;2022-08-30T10:02:26;22.48;64.18
20862;DHT22;10591;52.532;13.348;2022-08-30T10:07:47;22.50;62.50
20862;DHT22;10591;52.532;13.348;2022-08-30T10:10:30;22.22;64.14
20862;DHT22;10591;52.532;13.348;2022-08-30T10:13:25;22.20;63.99
20862;DHT22;10591;52.532;13.348;2022-08-30T10:16:06;22.18;63.22
20862;DHT22;10591;52.532;13.348;2022-08-30T10:18:35;22.04;63.19
20862;DHT22;10591;52.532;13.348;2022-08-30T10:21:14;21.89;64.08
20862;DHT22;10591;52.532;13.348;2022-08-30T10:23:57;21.79;64.71
20862;DHT22;10591;52.532;13.348;2022-08-30T10:26:27;21.74;65.19
20862;DHT22;10591;52.532;13.348;2022-08-30T10:29:27;21.68;64.15
20862;DHT22;10591;52.532;13.348;2022-08-30T10:31:47;21.71;64.52
20862;DHT22;10591;52.532;13.348;2022-08-30T10:34:33;21.83;63.63
20862;DHT22;10591;52.532;13.348;2022-08-30T10:37:10;22.06;64.29
20862;DHT22;10591;52.532;13.348;2022-08-30T10:39:54;22.34;62.36
20862;DHT22;10591;52.532;13.348;2022-08-30T10:42:24;22.53;62.36
20862;DHT22;10591;52.532;13.348;2022-08-30T10:45:03;22.75;59.67
20862;DHT22;10591;52.532;13.348;2022-08-30T10:47:39;23.28;59.72
20862;DHT22;10591;52.532;13.348;2022-08-30T10:50:20;23.38;59.01
20862;DHT22;10591;52.532;13.348;2022-08-30T10:53:13;23.62;57.27
20862;DHT22;10591;52.532;13.348;2022-08-30T10:55:54;23.65;55.70
20862;DHT22;10591;52.532;13.348;2022-08-30T10:58:24;23.94;56.33
20862;DHT22;10591;52.532;13.348;2022-08-30T11:13:05;23.70;56.73
20862;DHT22;10591;52.532;13.348;2022-08-30T11:15:51;23.64;56.26
20862;DHT22;10591;52.532;13.348;2022-08-30T11:18:10;23.72;56.51
20862;DHT22;10591;52.532;13.348;2022-08-30T11:20:44;23.79;56.43
20862;DHT22;10591;52.532;13.348;2022-08-30T11:25:58;23.94;57.81
20862;DHT22;10591;52.532;13.348;2022-08-30T11:33:49;24.21;57.02
20862;DHT22;10591;52.532;13.348;2022-08-30T11:39:08;24.52;56.32
20862;DHT22;10591;52.532;13.348;2022-08-30T11:47:35;24.86;54.69
20862;DHT22;10591;52.532;13.348;2022-08-30T11:49:39;24.70;55.79
20862;DHT22;10591;52.532;13.348;2022-08-30T11:55:36;24.81;53.52
20862;DHT22;10591;52.532;13.348;2022-08-30T11:58:40;25.30;53.93
20862;DHT22;10591;52.532;13.348;2022-08-30T12:01:21;25.46;52.28
20862;DHT22;10591;52.532;13.348;2022-08-30T12:03:59;25.49;51.74
20862;DHT22;10591;52.532;13.348;2022-08-30T12:06:47;26.02;50.78
20862;DHT22;10591;52.532;13.348;2022-08-30T12:14:56;24.56;53.70
20862;DHT22;10591;52.532;13.348;2022-08-30T12:17:50;24.59;55.21
20862;DHT22;10591;52.532;13.348;2022-08-30T12:20:46;24.16;55.56
20862;DHT22;10591;52.532;13.348;2022-08-30T12:23:34;23.90;55.27
20862;DHT22;10591;52.532;13.348;2022-08-30T12:26:11;24.07;55.60
20862;DHT22;10591;52.532;13.348;2022-08-30T12:28:43;24.11;56.57
20862;DHT22;10591;52.532;13.348;2022-08-30T12:31:21;23.91;56.11
20862;DHT22;10591;52.532;13.348;2022-08-30T12:33:53;24.14;55.99
20862;DHT22;10591;52.532;13.348;2022-08-30T12:36:35;24.03;57.27
20862;DHT22;10591;52.532;13.348;2022-08-30T12:39:11;24.09;57.31
20862;DHT22;10591;52.532;13.348;2022-08-30T12:41:41;24.22;55.63
20862;DHT22;10591;52.532;13.348;2022-08-30T12:44:21;24.03;56.50
20862;DHT22;10591;52.532;13.348;2022-08-30T12:46:55;23.93;56.54
20862;DHT22;10591;52.532;13.348;2022-08-30T12:49:29;23.91;56.60
20862;DHT22;10591;52.532;13.348;2022-08-30T12:55:19;23.87;56.04
20862;DHT22;10591;52.532;13.348;2022-08-30T12:57:57;23.89;56.26
20862;DHT22;10591;52.532;13.348;2022-08-30T13:01:09;23.95;56.06
20862;DHT22;10591;52.532;13.348;2022-08-30T13:03:52;24.32;54.67
20862;DHT22;10591;52.532;13.348;2022-08-30T13:05:43;24.56;54.77
20862;DHT22;10591;52.532;13.348;2022-08-30T13:08:18;24.44;54.75
20862;DHT22;10591;52.532;13.348;2022-08-30T13:11:05;24.38;54.18
20862;DHT22;10591;52.532;13.348;2022-08-30T13:13:45;24.52;54.26
20862;DHT22;10591;52.532;13.348;2022-08-30T13:16:24;24.60;54.59
20862;DHT22;10591;52.532;13.348;2022-08-30T13:21:51;24.79;54.05
20862;DHT22;10591;52.532;13.348;2022-08-30T13:24:22;24.81;54.12
20862;DHT22;10591;52.532;13.348;2022-08-30T13:26:57;24.89;54.56
20862;DHT22;10591;52.532;13.348;2022-08-30T13:29:29;24.92;54.60
20862;DHT22;10591;52.532;13.348;2022-08-30T13:32:00;24.61;54.37
20862;DHT22;10591;52.532;13.348;2022-08-30T13:34:30;24.64;54.37
20862;DHT22;10591;52.532;13.348;2022-08-30T13:37:03;24.62;53.46
20862;DHT22;10591;52.532;13.348;2022-08-30T13:39:37;24.83;53.49
20862;DHT22;10591;52.532;13.348;2022-08-30T13:42:09;24.58;53.80
20862;DHT22;10591;52.532;13.348;2022-08-30T13:44:41;24.58;54.36
20862;DHT22;10591;52.532;13.348;2022-08-30T13:47:12;24.45;54.28
20862;DHT22;10591;52.532;13.348;2022-08-30T13:49:45;24.40;55.12
20862;DHT22;10591;52.532;13.348;2022-08-30T13:52:19;24.38;54.43
20862;DHT22;10591;52.532;13.348;2022-08-30T13:54:55;24.34;54.65
20862;DHT22;10591;52.532;13.348;2022-08-30T13:57:29;24.55;54.52
20862;DHT22;10591;52.532;13.348;2022-08-30T14:00:04;25.19;53.13
20862;DHT22;10591;52.532;13.348;2022-08-30T14:02:35;25.52;52.18
20862;DHT22;10591;52.532;13.348;2022-08-30T14:05:07;25.78;52.48
20862;DHT22;10591;52.532;13.348;2022-08-30T14:07:40;25.54;52.92
20862;DHT22;10591;52.532;13.348;2022-08-30T14:10:11;25.14;53.22
20862;DHT22;10591;52.532;13.348;2022-08-30T14:12:45;24.95;54.70
20862;DHT22;10591;52.532;13.348;2022-08-30T14:15:17;24.79;55.52
20862;DHT22;10591;52.532;13.348;2022-08-30T14:17:47;24.65;56.06
20862;DHT22;10591;52.532;13.348;2022-08-30T14:20:19;24.46;56.71
20862;DHT22;10591;52.532;13.348;2022-08-30T14:22:50;24.31;57.68
20862;DHT22;10591;52.532;13.348;2022-08-30T14:25:20;24.61;56.02
20862;DHT22;10591;52.532;13.348;2022-08-30T14:27:51;24.15;57.96
20862;DHT22;10591;52.532;13.348;2022-08-30T14:30:22;23.90;59.18
20862;DHT22;10591;52.532;13.348;2022-08-30T14:32:53;23.81;59.49
20862;DHT22;10591;52.532;13.348;2022-08-30T14:35:24;23.49;60.03
20862;DHT22;10591;52.532;13.348;2022-08-30T14:37:56;23.50;60.60
20862;DHT22;10591;52.532;13.348;2022-08-30T14:40:27;23.32;60.61
20862;DHT22;10591;52.532;13.348;2022-08-30T14:42:58;23.24;61.28
20862;DHT22;10591;52.532;13.348;2022-08-30T14:45:28;23.28;61.46
20862;DHT22;10591;52.532;13.348;2022-08-30T14:47:59;23.26;61.43
20862;DHT22;10591;52.532;13.348;2022-08-30T14:50:32;23.17;61.54
20862;DHT22;10591;52.532;13.348;2022-08-30T14:53:04;23.08;61.34
20862;DHT22;10591;52.532;13.348;2022-08-30T14:55:35;22.96;61.35
20862;DHT22;10591;52.532;13.348;2022-08-30T14:58:06;22.94;62.10
20862;DHT22;10591;52.532;13.348;2022-08-30T15:00:39;22.85;61.69
20862;DHT22;10591;52.532;13.348;2022-08-30T15:03:12;23.06;62.51
20862;DHT22;10591;52.532;13.348;2022-08-30T15:05:50;22.91;62.53
20862;DHT22;10591;52.532;13.348;2022-08-30T15:08:21;22.80;62.41
20862;DHT22;10591;52.532;13.348;2022-08-30T15:10:53;22.80;62.28
20862;DHT22;10591;52.532;13.348;2022-08-30T15:13:25;22.89;61.20
20862;DHT22;10591;52.532;13.348;2022-08-30T15:15:56;22.77;62.16
20862;DHT22;10591;52.532;13.348;2022-08-30T15:18:26;22.69;61.94
20862;DHT22;10591;52.532;13.348;2022-08-30T15:20:58;22.58;61.17
20862;DHT22;10591;52.532;13.348;2022-08-30T15:23:28;22.44;61.60
20862;DHT22;10591;52.532;13.348;2022-08-30T15:25:59;22.34;62.24
20862;DHT22;10591;52.532;13.348;2022-08-30T15:28:30;22.46;62.49
20862;DHT22;10591;52.532;13.348;2022-08-30T15:31:00;22.42;62.55
20862;DHT22;10591;52.532;13.348;2022-08-30T15:33:32;22.24;62.22
20862;DHT22;10591;52.532;13.348;2022-08-30T15:36:05;22.19;62.81
20862;DHT22;10591;52.532;13.348;2022-08-30T15:38:36;22.09;62.02
20862;DHT22;10591;52.532;13.348;2022-08-30T15:41:09;22.06;62.28
20862;DHT22;10591;52.532;13.348;2022-08-30T15:43:40;22.08;61.31
20862;DHT22;10591;52.532;13.348;2022-08-30T15:46:22;22.10;62.17
20862;DHT22;10591;52.532;13.348;2022-08-30T15:49:04;21.96;63.04
20862;DHT22;10591;52.532;13.348;2022-08-30T15:51:37;21.88;63.20
20862;DHT22;10591;52.532;13.348;2022-08-30T15:54:10;21.86;63.28
20862;DHT22;10591;52.532;13.348;2022-08-30T15:56:41;21.93;63.18
20862;DHT22;10591;52.532;13.348;2022-08-30T15:59:13;21.76;63.42
20862;DHT22;10591;52.532;13.348;2022-08-30T16:01:47;21.84;64.28
20862;DHT22;10591;52.532;13.348;2022-08-30T16:04:17;21.75;64.78
20862;DHT22;10591;52.532;13.348;2022-08-30T16:06:48;21.64;63.95
20862;DHT22;10591;52.532;13.348;2022-08-30T16:09:21;21.67;63.60
20862;DHT22;10591;52.532;13.348;2022-08-30T16:11:52;21.78;62.80
20862;DHT22;10591;52.532;13.348;2022-08-30T16:14:22;21.70;61.57
20862;DHT22;10591;52.532;13.348;2022-08-30T16:16:54;21.69;62.13
20862;DHT22;10591;52.532;13.348;2022-08-30T16:19:25;21.80;62.80
20862;DHT22;10591;52.532;13.348;2022-08-30T16:21:57;21.64;62.66
20862;DHT22;10591;52.532;13.348;2022-08-30T16:24:28;21.33;63.31
20862;DHT22;10591;52.532;13.348;2022-08-30T16:26:58;21.28;63.63
20862;DHT22;10591;52.532;13.348;2022-08-30T16:29:29;21.23;64.29
20862;DHT22;10591;52.532;13.348;2022-08-30T16:31:59;21.10;64.59
20862;DHT22;10591;52.532;13.348;2022-08-30T16:34:30;21.18;64.55
20862;DHT22;10591;52.532;13.348;2022-08-30T16:37:01;21.60;63.65
20862;DHT22;10591;52.532;13.348;2022-08-30T16:39:32;21.92;61.82
20862;DHT22;10591;52.532;13.348;2022-08-30T16:42:03;21.80;61.83
20862;DHT22;10591;52.532;13.348;2022-08-30T16:44:35;21.60;62.65
20862;DHT22;10591;52.532;13.348;2022-08-30T16:47:05;21.22;63.20
20862;DHT22;10591;52.532;13.348;2022-08-30T16:49:40;20.99;63.64
20862;DHT22;10591;52.532;13.348;2022-08-30T16:52:12;20.80;63.84
20862;DHT22;10591;52.532;13.348;2022-08-30T16:54:43;20.66;65.67